Home PIREPS Pireps

Flight SAB4061

  • Submitted By: Johan Willems
  • Departure Airport: Bruxelles National (EBBR)
  • Arrival Airport: airport Zurich (LSZH)
  • Aircraft: B737-500 (OO-SAB)
  • Flight Time: 01.03
  • Date Submitted: 21/06/2015
  • Status: Accepted
Flight Details
Gross Revenue:
(116 load / € 0.00 per unit
€ 0.00
Fuel Cost:
(2783 fuel used @ 5.1 / unit)
€ 14,193.30

Additional Log Information:

View Log

Aircraft Used in flight is Airbus A320 brussels
18:27 Brakes are On
18:28 Brakes are Released
18:29 Brakes are On
18:32 Brakes are Released
18:39 You Took off @ 149 Knots and Flaps at Position 3
Departure Weather
EBBR 211620Z 26014KT 9999 FEW041 19/09 Q1015 NOSIGrn
18:39 Landing Gear Up @ 156 Knots and 220 Feet
18:40 You exceeded maximum bank angle
18:42 Above FL100 you need to switch of the landing lights
19:22 Landing Gear Down @ 152 Knots and 2350 Feet
19:23 You Landed @ 125 Knots and with -150 Vertical Speed
Arrival Weather
LSZH 211650Z 18006KT 9999 FEW022 BKN140 18/14 Q1018 NOSIGrn
19:29 Brakes are On
19:30 Brussels Bel-Track1.0.0.9

Route Map

Corporate About Us Our Team Vacancies Information Fleet Route Network Rules and Regulations Operations Flight Schedules Event Center Tours Partners IVAO Vatsim Acars dev FSCB

fb Users Online No pilots online!
0 Pilot(s) and 73 Guest(s) Online
CMS by phpVMS - Design by Crazycreatives.com - Copyright © 2018 - Brussels Airlines Virtual